Terminal Aerodrome Forecast
Issued by NWS

Home | Current Version | Previous Version | Text Only | Print | Product List | Glossary On
Versions: 1 2 3 4 5 6 7 8 9 10 11 12 13 14 15 16 17 18 19 20 21 22 23 24
000
FTUS43 KLSX 152300
TAFCPS
TAF
KCPS 152330Z 1600/1624 15012KT 6SM BR SCT012 BKN025
      TEMPO 1600/1601 4SM -SHRA BR SCT008 BKN012
     FM160100 23013G23KT P6SM VCSH OVC025
     FM160300 25015G25KT P6SM OVC015
     FM161200 29016G26KT P6SM OVC015=

USA.gov is the U.S. government's official web portal to all federal, state and local government web resources and services.